createdAt,value
2023-01-03T00:01:03.035Z,84.8
2023-01-03T00:02:06.343Z,85
2023-01-03T00:03:09.233Z,84.9
2023-01-03T00:04:12.410Z,85
2023-01-03T00:05:16.131Z,85
2023-01-03T00:06:20.387Z,85.3
2023-01-03T00:07:23.769Z,85.4
2023-01-03T00:08:27.072Z,85.4
2023-01-03T00:09:30.806Z,85.3
2023-01-03T00:10:34.856Z,85.4
2023-01-03T00:11:52.808Z,85.3
2023-01-03T00:12:55.743Z,85.2
2023-01-03T00:13:58.803Z,85.2
2023-01-03T00:15:02.610Z,85.2
2023-01-03T00:16:05.801Z,85.2
2023-01-03T00:17:09.284Z,85.2
2023-01-03T00:18:11.872Z,85.3
2023-01-03T00:19:15.492Z,85.3
2023-01-03T00:20:18.810Z,85.3
2023-01-03T00:21:21.557Z,85.2
2023-01-03T00:22:25.600Z,85.1
2023-01-03T00:23:29.128Z,85.1
2023-01-03T00:24:33.101Z,84.8
2023-01-03T00:25:36.711Z,85.1
2023-01-03T00:26:39.498Z,85
2023-01-03T00:29:01.174Z,85
2023-01-03T00:30:05.012Z,84.9
2023-01-03T00:31:08.477Z,84.8
2023-01-03T00:32:11.844Z,85
2023-01-03T00:33:15.653Z,85.2
2023-01-03T00:34:18.940Z,85
2023-01-03T00:35:21.936Z,84.8
2023-01-03T00:36:24.942Z,84.8
2023-01-03T00:37:29.135Z,84.8
2023-01-03T00:38:31.665Z,84.6
2023-01-03T00:39:51.451Z,84.9
2023-01-03T00:40:54.886Z,84.8
2023-01-03T00:41:58.125Z,84.6
2023-01-03T00:43:01.512Z,84.5
2023-01-03T00:44:05.111Z,84.6
2023-01-03T00:45:20.002Z,84.3
2023-01-03T00:46:33.520Z,84.1
2023-01-03T00:47:37.064Z,84.2
2023-01-03T00:48:40.010Z,84
2023-01-03T00:49:43.409Z,84.1
2023-01-03T00:50:46.724Z,84.2
2023-01-03T00:51:49.487Z,84.3
2023-01-03T00:52:53.556Z,84.3
2023-01-03T00:53:56.665Z,84.2
2023-01-03T00:54:59.985Z,84
2023-01-03T00:56:02.954Z,84
2023-01-03T00:57:06.613Z,83.9
2023-01-03T00:58:09.735Z,83.7
2023-01-03T00:59:12.573Z,83.6
2023-01-03T01:00:15.478Z,83.7
2023-01-03T01:01:19.877Z,84
2023-01-03T01:02:23.658Z,83.9
2023-01-03T01:03:28.531Z,83.7
2023-01-03T01:04:47.171Z,83.5
2023-01-03T01:05:51.131Z,83.4
2023-01-03T01:06:54.478Z,83.8
2023-01-03T01:07:58.614Z,83.6
2023-01-03T01:09:01.799Z,83.3
2023-01-03T01:10:05.296Z,83.6
2023-01-03T01:11:08.754Z,83.4
2023-01-03T01:12:11.756Z,83.2
2023-01-03T01:13:14.683Z,83.2
2023-01-03T01:14:17.673Z,83.2
2023-01-03T01:15:20.540Z,83.4
2023-01-03T01:16:23.431Z,83.5
2023-01-03T01:17:26.713Z,83.6
2023-01-03T01:18:29.290Z,83.6
2023-01-03T01:19:33.208Z,83.6
2023-01-03T01:20:36.953Z,83.5
2023-01-03T01:21:39.659Z,83.6
2023-01-03T01:22:43.030Z,83.7
2023-01-03T01:23:46.657Z,83.7
2023-01-03T01:24:49.919Z,83.7
2023-01-03T01:25:52.910Z,83.9
2023-01-03T01:26:56.012Z,83.9
2023-01-03T01:27:59.010Z,83.8
2023-01-03T01:29:01.732Z,83.7
2023-01-03T01:30:04.789Z,83.7
2023-01-03T01:31:08.159Z,83.6
2023-01-03T01:32:11.547Z,83.6
2023-01-03T01:33:14.874Z,83.6
2023-01-03T01:34:18.150Z,83.5
2023-01-03T01:35:20.885Z,83.3
2023-01-03T01:36:23.335Z,83.1
2023-01-03T01:37:26.325Z,83.2
2023-01-03T01:38:29.582Z,83.3
2023-01-03T01:39:33.106Z,83.2
2023-01-03T01:40:36.177Z,82.8
2023-01-03T01:41:39.259Z,82.9
2023-01-03T01:42:42.913Z,82.8
2023-01-03T01:43:46.099Z,82.9
2023-01-03T01:44:48.883Z,82.9
2023-01-03T01:45:52.237Z,82.9
2023-01-03T01:46:55.195Z,82.9
2023-01-03T01:47:58.286Z,82.6
2023-01-03T01:49:01.604Z,82.8
2023-01-03T01:50:04.386Z,82.6
2023-01-03T01:51:08.097Z,82.8
2023-01-03T01:52:11.203Z,82.6
2023-01-03T01:53:13.924Z,82.7
2023-01-03T01:54:17.396Z,82.8
2023-01-03T01:55:21.236Z,82.5
2023-01-03T01:56:25.248Z,82.6
2023-01-03T01:57:27.990Z,82.5
2023-01-03T01:58:31.463Z,82.4
2023-01-03T01:59:34.825Z,82.5
2023-01-03T02:00:38.311Z,82.5
2023-01-03T02:01:41.666Z,82.5
2023-01-03T02:02:46.455Z,82.6
2023-01-03T02:03:50.370Z,82.6
2023-01-03T02:04:53.439Z,82.6
2023-01-03T02:05:56.779Z,82.5
2023-01-03T02:06:59.762Z,82.6
2023-01-03T02:08:02.672Z,82.7
2023-01-03T02:09:05.808Z,82.7
2023-01-03T02:10:08.887Z,82.5
2023-01-03T02:11:13.072Z,82.5
2023-01-03T02:12:15.825Z,82.3
2023-01-03T02:13:18.319Z,82.3
2023-01-03T02:14:21.385Z,82.3
2023-01-03T02:15:24.843Z,82.3
2023-01-03T02:16:28.648Z,82.2
2023-01-03T02:17:31.109Z,82.3
2023-01-03T02:18:34.494Z,82.4
2023-01-03T02:19:37.662Z,82.2
2023-01-03T02:20:41.104Z,82.2
2023-01-03T02:21:44.177Z,82.3
2023-01-03T02:22:46.423Z,82.1
2023-01-03T02:23:50.215Z,81.9
2023-01-03T02:24:52.663Z,81.9
2023-01-03T02:25:55.713Z,81.8
2023-01-03T02:26:59.711Z,81.7
2023-01-03T02:28:02.228Z,81.9
2023-01-03T02:29:04.690Z,81.9
2023-01-03T02:30:07.702Z,81.9
2023-01-03T02:31:10.778Z,82
2023-01-03T02:32:14.406Z,81.9
2023-01-03T02:33:17.774Z,81.9
2023-01-03T02:34:20.226Z,81.9
2023-01-03T02:35:23.605Z,81.8
2023-01-03T02:36:27.237Z,81.8
2023-01-03T02:37:30.085Z,82.2
2023-01-03T02:38:32.903Z,82.2
2023-01-03T02:39:42.072Z,82.1
2023-01-03T02:40:44.399Z,82.2
2023-01-03T02:41:47.531Z,82.2
2023-01-03T02:42:50.781Z,82.3
2023-01-03T02:43:53.862Z,82.4
2023-01-03T02:44:56.290Z,82.3
2023-01-03T02:45:59.729Z,82.5
2023-01-03T02:47:03.204Z,82.4
2023-01-03T02:48:06.356Z,82.4
2023-01-03T02:49:09.167Z,82.6
2023-01-03T02:50:12.059Z,82.8
2023-01-03T02:51:15.054Z,82.9
2023-01-03T02:52:17.843Z,83
2023-01-03T02:53:20.631Z,83.2
2023-01-03T02:54:24.067Z,83.3
2023-01-03T02:55:27.165Z,83.3
2023-01-03T02:56:30.928Z,83.6
2023-01-03T02:57:34.038Z,83.5
2023-01-03T02:58:38.221Z,83.4
2023-01-03T02:59:41.501Z,83.7
2023-01-03T03:00:44.267Z,83.7
2023-01-03T03:01:48.124Z,83.6
2023-01-03T03:02:52.129Z,83.6
2023-01-03T03:03:56.320Z,83.7
2023-01-03T03:04:59.472Z,83.9
2023-01-03T03:06:02.343Z,84
2023-01-03T03:07:04.788Z,84.3
2023-01-03T03:08:07.504Z,84.7
2023-01-03T03:09:09.949Z,84.9
2023-01-03T03:10:13.629Z,85
2023-01-03T03:11:17.030Z,85.2
2023-01-03T03:12:20.452Z,85.3
2023-01-03T03:13:23.554Z,85.3
2023-01-03T03:14:27.575Z,85.2
2023-01-03T03:15:30.691Z,85.5
2023-01-03T03:16:33.718Z,85.4
2023-01-03T03:17:36.736Z,85.6
2023-01-03T03:18:39.808Z,85.7
2023-01-03T03:19:42.977Z,85.7
2023-01-03T03:20:46.359Z,85.9
2023-01-03T03:21:49.156Z,85.9
2023-01-03T03:22:52.282Z,85.8
2023-01-03T03:23:55.270Z,85.7
2023-01-03T03:24:58.078Z,85.9
2023-01-03T03:26:00.255Z,85.9
2023-01-03T03:27:03.110Z,85.9
2023-01-03T03:28:05.542Z,86.4
2023-01-03T03:29:08.631Z,86.3
2023-01-03T03:30:12.609Z,86.5
2023-01-03T03:31:16.011Z,86.9
2023-01-03T03:32:19.116Z,87.1
2023-01-03T03:33:22.126Z,87.4
2023-01-03T03:34:25.389Z,87.4
2023-01-03T03:35:28.736Z,87.5
2023-01-03T03:36:31.883Z,87.5
2023-01-03T03:37:35.189Z,87.6
2023-01-03T03:38:37.359Z,87.6
2023-01-03T03:39:40.981Z,87.6
2023-01-03T03:40:44.476Z,87.9
2023-01-03T03:41:47.565Z,88
2023-01-03T03:42:50.322Z,88.1
2023-01-03T03:43:53.405Z,88
2023-01-03T03:45:03.634Z,87.9
2023-01-03T03:46:07.458Z,88.2
2023-01-03T03:47:10.823Z,88.5
2023-01-03T03:48:14.079Z,88.6
2023-01-03T03:49:17.502Z,88.6
2023-01-03T03:50:20.559Z,88.3
2023-01-03T03:51:23.058Z,88.2
2023-01-03T03:52:26.163Z,88.1
2023-01-03T03:53:29.297Z,88.1
2023-01-03T03:54:32.639Z,88.1
2023-01-03T03:55:35.793Z,87.9
2023-01-03T03:56:39.144Z,87.6
2023-01-03T03:57:42.596Z,87.7
2023-01-03T03:58:45.991Z,87.8
2023-01-03T03:59:49.656Z,88
2023-01-03T04:00:52.459Z,88.2
2023-01-03T04:01:57.509Z,88
2023-01-03T04:03:02.105Z,88
2023-01-03T04:04:05.767Z,87.7
2023-01-03T04:05:09.673Z,87.6
2023-01-03T04:06:11.905Z,87.5
2023-01-03T04:07:14.929Z,87.3
2023-01-03T04:08:17.685Z,87.3
2023-01-03T04:09:20.606Z,87.3
2023-01-03T04:10:23.911Z,87.3
2023-01-03T04:11:27.351Z,87.3
2023-01-03T04:12:30.368Z,87.5
2023-01-03T04:13:32.796Z,87.5
2023-01-03T04:14:35.317Z,87.6
2023-01-03T04:15:38.372Z,87.5
2023-01-03T04:16:41.849Z,87.5
2023-01-03T04:17:46.099Z,87.5
2023-01-03T04:18:49.424Z,87.4
2023-01-03T04:19:51.867Z,87.7
2023-01-03T04:20:55.568Z,87.9
2023-01-03T04:21:58.401Z,87.9
2023-01-03T04:23:01.741Z,88
2023-01-03T04:24:04.835Z,88.1
2023-01-03T04:25:08.571Z,88
2023-01-03T04:26:11.300Z,88.1
2023-01-03T04:27:14.676Z,88.3
2023-01-03T04:28:18.025Z,88.3
2023-01-03T04:29:21.092Z,88
2023-01-03T04:30:24.399Z,88
2023-01-03T04:31:27.844Z,88
2023-01-03T04:32:30.998Z,87.9
2023-01-03T04:33:34.671Z,88
2023-01-03T04:34:38.117Z,87.9
2023-01-03T04:35:40.705Z,88
2023-01-03T04:36:43.737Z,87.9
2023-01-03T04:37:47.118Z,87.7
2023-01-03T04:38:50.534Z,87.8
2023-01-03T04:39:53.822Z,88
2023-01-03T04:40:57.310Z,88.3
2023-01-03T04:42:00.039Z,88.2
2023-01-03T04:43:03.713Z,88
2023-01-03T04:44:06.565Z,87.9
2023-01-03T04:45:09.874Z,87.7
2023-01-03T04:46:12.731Z,87.6
2023-01-03T04:47:15.667Z,87.7
2023-01-03T04:48:18.891Z,87.8
2023-01-03T04:49:23.221Z,87.9
2023-01-03T04:50:26.982Z,88
2023-01-03T04:51:30.400Z,88.1
2023-01-03T04:52:33.965Z,88.1
2023-01-03T04:53:36.763Z,88.2
2023-01-03T04:54:39.761Z,88.1
2023-01-03T04:55:43.094Z,88
2023-01-03T04:56:46.894Z,88
2023-01-03T04:57:50.285Z,88.1
2023-01-03T04:58:52.467Z,88.3
2023-01-03T04:59:55.275Z,88.2
2023-01-03T05:00:58.777Z,88.1
2023-01-03T05:02:02.935Z,88.1
2023-01-03T05:03:06.436Z,88.2
2023-01-03T05:04:09.550Z,88.2
2023-01-03T05:05:13.734Z,88.6
2023-01-03T05:06:16.534Z,88.7
2023-01-03T05:07:19.665Z,88.8
2023-01-03T05:08:23.272Z,88.8
2023-01-03T05:09:26.651Z,88.8
2023-01-03T05:10:29.480Z,88.8
2023-01-03T05:11:32.489Z,88.8
2023-01-03T05:12:35.479Z,89.1
2023-01-03T05:13:38.859Z,89.2
2023-01-03T05:14:42.234Z,89.2
2023-01-03T05:15:45.296Z,89.3
2023-01-03T05:16:48.488Z,89.3
2023-01-03T05:17:51.808Z,89.3
2023-01-03T05:18:54.718Z,89.2
2023-01-03T05:19:58.079Z,89.2
2023-01-03T05:21:01.794Z,89.2
2023-01-03T05:22:04.563Z,89.2
2023-01-03T05:23:07.620Z,89.3
2023-01-03T05:24:10.555Z,89.4
2023-01-03T05:25:14.627Z,89.3
2023-01-03T05:26:17.421Z,89.4
2023-01-03T05:27:20.437Z,89.4
2023-01-03T05:28:23.971Z,89.2
2023-01-03T05:29:27.404Z,89.1
2023-01-03T05:30:30.463Z,88.9
2023-01-03T05:31:33.611Z,88.7
2023-01-03T05:32:36.771Z,89.1
2023-01-03T05:33:39.875Z,89.4
2023-01-03T05:34:42.715Z,89.5
2023-01-03T05:35:45.883Z,89.5
2023-01-03T05:36:49.761Z,89.6
2023-01-03T05:37:52.566Z,89.6
2023-01-03T05:38:55.378Z,89.5
2023-01-03T05:39:58.824Z,89.5
2023-01-03T05:41:02.511Z,89.5
2023-01-03T05:42:06.250Z,89.4
2023-01-03T05:43:09.728Z,89.3
2023-01-03T05:44:13.125Z,89.3
2023-01-03T05:45:16.039Z,89.3
2023-01-03T05:46:19.743Z,89.3
2023-01-03T05:47:23.401Z,89.4
2023-01-03T05:48:26.231Z,89.4
2023-01-03T05:49:28.969Z,89.4
2023-01-03T05:50:32.341Z,89.3
2023-01-03T05:51:35.422Z,89.2
2023-01-03T05:52:39.220Z,89.2
2023-01-03T05:53:41.986Z,89.3
2023-01-03T05:54:45.347Z,89.3
2023-01-03T05:55:48.351Z,89.3
2023-01-03T05:56:51.582Z,89.2
2023-01-03T05:57:54.347Z,89.1
2023-01-03T05:58:57.342Z,89.1
2023-01-03T06:00:01.033Z,89.1
2023-01-03T06:01:04.414Z,89
2023-01-03T06:02:08.394Z,88.9
2023-01-03T06:03:12.238Z,88.9
2023-01-03T06:04:15.597Z,88.8
2023-01-03T06:05:18.905Z,88.7
2023-01-03T06:06:21.922Z,88.6
2023-01-03T06:07:24.932Z,88.5
2023-01-03T06:08:29.159Z,88.4
2023-01-03T06:09:32.462Z,88.4
2023-01-03T06:10:35.176Z,88.4
2023-01-03T06:11:38.662Z,88.4
2023-01-03T06:12:41.641Z,88.3
2023-01-03T06:13:44.647Z,88.3
2023-01-03T06:14:47.367Z,88.3
2023-01-03T06:15:50.119Z,88.2
2023-01-03T06:16:53.796Z,88.3
2023-01-03T06:17:57.061Z,88.4
2023-01-03T06:19:01.161Z,88.4
2023-01-03T06:20:04.513Z,88.3
2023-01-03T06:21:08.276Z,88.3
2023-01-03T06:22:12.410Z,88.3
2023-01-03T06:23:15.300Z,88.2
2023-01-03T06:24:19.384Z,88.2
2023-01-03T06:25:22.644Z,88.3
2023-01-03T06:26:26.034Z,88.3
2023-01-03T06:27:29.234Z,88.2
2023-01-03T06:28:32.262Z,88.2
2023-01-03T06:29:35.733Z,88.1
2023-01-03T06:30:39.698Z,88
2023-01-03T06:31:43.254Z,87.9
2023-01-03T06:32:46.060Z,87.9
2023-01-03T06:33:49.240Z,87.8
2023-01-03T06:34:52.327Z,87.7
2023-01-03T06:35:55.686Z,87.7
2023-01-03T06:36:58.730Z,87.7
2023-01-03T06:38:01.643Z,87.7
2023-01-03T06:39:04.638Z,87.6
2023-01-03T06:40:08.587Z,87.6
2023-01-03T06:41:12.055Z,87.7
2023-01-03T06:42:15.481Z,87.8
2023-01-03T06:43:18.552Z,87.9
2023-01-03T06:44:21.868Z,88
2023-01-03T06:45:24.938Z,88
2023-01-03T06:46:28.401Z,88
2023-01-03T06:47:31.345Z,88.1
2023-01-03T06:48:34.602Z,88.1
2023-01-03T06:49:37.698Z,88.2
2023-01-03T06:50:40.768Z,88.2
2023-01-03T06:51:44.494Z,88.3
2023-01-03T06:52:46.672Z,88.3
2023-01-03T06:53:49.957Z,88.3
2023-01-03T06:54:53.017Z,88.3
2023-01-03T06:55:59.005Z,88.2
2023-01-03T06:57:02.077Z,88.3
2023-01-03T06:58:05.437Z,88.5
2023-01-03T06:59:09.099Z,88.8
2023-01-03T07:00:12.102Z,88.9
2023-01-03T07:01:15.425Z,89
2023-01-03T07:02:19.446Z,88.7
2023-01-03T07:03:22.542Z,88.6
2023-01-03T07:04:25.493Z,88.6
2023-01-03T07:05:29.652Z,88.6
2023-01-03T07:06:32.919Z,88.5
2023-01-03T07:07:35.621Z,88.4
2023-01-03T07:08:49.389Z,88.5
2023-01-03T07:09:52.392Z,88.4
2023-01-03T07:10:56.423Z,88.5
2023-01-03T07:12:00.563Z,88.7
2023-01-03T07:13:03.708Z,88.8
2023-01-03T07:14:06.707Z,88.8
2023-01-03T07:15:09.763Z,89
2023-01-03T07:16:13.507Z,89.1
2023-01-03T07:17:16.694Z,89.2
2023-01-03T07:18:20.093Z,89.2
2023-01-03T07:19:23.188Z,89.1
2023-01-03T07:20:26.781Z,89
2023-01-03T07:21:30.197Z,88.9
2023-01-03T07:22:32.954Z,88.8
2023-01-03T07:23:37.013Z,88.5
2023-01-03T07:24:40.037Z,88.3
2023-01-03T07:25:43.386Z,88.2
2023-01-03T07:26:46.516Z,88.5
2023-01-03T07:27:50.583Z,88.6
2023-01-03T07:28:54.272Z,88.6
2023-01-03T07:29:57.351Z,88.5
2023-01-03T07:31:00.955Z,88.5
2023-01-03T07:32:03.983Z,88.6
2023-01-03T07:33:07.369Z,88.6
2023-01-03T07:34:10.182Z,88.7
2023-01-03T07:35:13.455Z,88.6
2023-01-03T07:36:16.459Z,88.7
2023-01-03T07:37:19.482Z,88.6
2023-01-03T07:38:23.137Z,88.6
2023-01-03T07:39:26.768Z,88.6
2023-01-03T07:40:30.169Z,88.5
2023-01-03T07:41:33.834Z,88.5
2023-01-03T07:42:37.080Z,88.7
2023-01-03T07:43:40.914Z,88.9
2023-01-03T07:44:44.075Z,89
2023-01-03T07:45:47.996Z,89.1
2023-01-03T07:46:51.543Z,89.2
2023-01-03T07:47:54.452Z,89.2
2023-01-03T07:48:57.510Z,88.9
2023-01-03T07:50:00.863Z,88.8
2023-01-03T07:51:04.180Z,88.7
2023-01-03T07:52:07.624Z,88.8
2023-01-03T07:53:10.720Z,88.7
2023-01-03T07:54:13.292Z,88.6
2023-01-03T07:55:17.394Z,88.6
2023-01-03T07:56:20.131Z,88.5
2023-01-03T07:57:24.141Z,88.4
2023-01-03T07:58:27.490Z,88.2
2023-01-03T07:59:31.110Z,88.1
2023-01-03T08:00:34.558Z,88.1
2023-01-03T08:01:37.792Z,88.3
2023-01-03T08:02:41.817Z,88.5
2023-01-03T08:03:45.574Z,88.8
2023-01-03T08:04:49.070Z,88.9
2023-01-03T08:05:52.118Z,88.9
2023-01-03T08:06:55.843Z,88.8
2023-01-03T08:07:58.361Z,88.7
2023-01-03T08:09:07.626Z,88.7
2023-01-03T08:10:10.868Z,88.5
2023-01-03T08:11:14.036Z,88.5
2023-01-03T08:12:16.512Z,88.3
2023-01-03T08:13:20.156Z,88.3
2023-01-03T08:14:28.341Z,88.1
2023-01-03T08:15:32.525Z,87.9
2023-01-03T08:16:36.097Z,87.9
2023-01-03T08:17:39.101Z,87.9
2023-01-03T08:18:42.558Z,87.9
2023-01-03T08:19:47.310Z,87.7
2023-01-03T08:20:50.683Z,87.6
2023-01-03T08:21:54.350Z,87.6
2023-01-03T08:22:57.524Z,87.7
2023-01-03T08:24:01.631Z,87.7
2023-01-03T08:25:04.685Z,88
2023-01-03T08:26:07.772Z,87.9
2023-01-03T08:27:11.474Z,87.8
2023-01-03T08:28:14.202Z,87.8
2023-01-03T08:29:17.005Z,87.6
2023-01-03T08:30:20.173Z,87.5
2023-01-03T08:31:24.730Z,87.7
2023-01-03T08:32:27.853Z,87.7
2023-01-03T08:33:31.200Z,87.4
2023-01-03T08:34:33.980Z,87.1
2023-01-03T08:35:37.438Z,87
2023-01-03T08:36:40.800Z,86.9
2023-01-03T08:37:44.252Z,86.6
2023-01-03T08:38:47.694Z,86.5
2023-01-03T08:39:51.089Z,86.5
2023-01-03T08:40:54.484Z,86.1
2023-01-03T08:41:57.230Z,85.8
2023-01-03T08:43:00.695Z,86
2023-01-03T08:44:04.019Z,86
2023-01-03T08:45:07.173Z,85.9
2023-01-03T08:46:11.164Z,85.4
2023-01-03T08:47:16.095Z,85.5
2023-01-03T08:48:19.654Z,85.2
2023-01-03T08:49:23.382Z,85.2
2023-01-03T08:50:26.777Z,85
2023-01-03T08:51:30.250Z,84.9
2023-01-03T08:52:36.835Z,85.1
2023-01-03T08:53:39.548Z,84.8
2023-01-03T08:54:42.647Z,84.7
2023-01-03T08:55:45.365Z,84.3
2023-01-03T08:56:48.424Z,84
2023-01-03T08:57:51.575Z,84
2023-01-03T08:58:54.905Z,83.6
2023-01-03T08:59:58.136Z,83.7
2023-01-03T09:01:02.283Z,83.7
2023-01-03T09:02:06.574Z,83.7
2023-01-03T09:03:12.333Z,83.4
2023-01-03T09:04:16.699Z,83.2
2023-01-03T09:05:20.076Z,83.2
2023-01-03T09:06:23.174Z,82.9
2023-01-03T09:07:26.901Z,82.7
2023-01-03T09:08:29.388Z,82.9
2023-01-03T09:09:32.418Z,82.9
2023-01-03T09:10:35.841Z,82.7
2023-01-03T09:11:50.579Z,82.3
2023-01-03T09:12:52.801Z,82
2023-01-03T09:13:55.229Z,81.6
2023-01-03T09:14:57.972Z,81.3
2023-01-03T09:16:01.759Z,81.4
2023-01-03T09:17:05.868Z,81.5
2023-01-03T09:18:09.234Z,81.5
2023-01-03T09:19:13.035Z,81.2
2023-01-03T09:20:16.113Z,80.9
2023-01-03T09:21:19.518Z,81.2
2023-01-03T09:22:23.248Z,81.1
2023-01-03T09:23:26.435Z,80.9
2023-01-03T09:24:30.143Z,80.6
2023-01-03T09:25:38.961Z,80.7
2023-01-03T09:26:42.492Z,80.5
2023-01-03T09:27:45.838Z,80.5
2023-01-03T09:28:48.826Z,80.4
2023-01-03T09:29:51.539Z,80
2023-01-03T09:30:54.526Z,79.8
2023-01-03T09:31:57.786Z,79.1
2023-01-03T09:33:01.460Z,78.7
2023-01-03T09:34:03.967Z,78.6
2023-01-03T09:35:08.042Z,78.3
2023-01-03T09:36:11.205Z,78.2
2023-01-03T09:37:14.681Z,77.3
2023-01-03T09:38:18.052Z,76.5
2023-01-03T09:39:20.844Z,76.6
2023-01-03T09:40:23.363Z,76.7
2023-01-03T09:41:26.661Z,76.5
2023-01-03T09:42:30.409Z,76.1
2023-01-03T09:43:33.227Z,75.5
2023-01-03T09:44:36.684Z,74.9
2023-01-03T09:45:39.730Z,74.7
2023-01-03T09:46:43.745Z,74.7
2023-01-03T09:47:46.579Z,75
2023-01-03T09:48:49.718Z,74.2
2023-01-03T09:51:22.485Z,73.2
2023-01-03T09:52:33.870Z,71.6
2023-01-03T09:53:37.577Z,71.9
2023-01-03T09:54:41.000Z,71.2
2023-01-03T09:55:44.837Z,71.2
2023-01-03T09:56:48.318Z,71.5
2023-01-03T09:57:51.826Z,70.7
2023-01-03T09:58:55.555Z,70.3
2023-01-03T09:59:58.295Z,70.1
2023-01-03T10:01:02.169Z,70.9
2023-01-03T10:02:06.946Z,70.1
2023-01-03T10:03:10.465Z,69
2023-01-03T10:04:13.684Z,68.8
2023-01-03T10:05:17.029Z,68.7
2023-01-03T10:06:19.952Z,68.7
2023-01-03T10:07:23.787Z,68.8
2023-01-03T10:08:27.630Z,69.1
2023-01-03T10:09:30.867Z,68.7
2023-01-03T10:10:34.260Z,68.8
2023-01-03T10:11:37.700Z,67.9
2023-01-03T10:12:40.173Z,68.2
2023-01-03T10:13:43.291Z,67.8
2023-01-03T10:14:46.537Z,68.8
2023-01-03T10:15:49.904Z,67.8
2023-01-03T10:16:52.593Z,67.8
2023-01-03T10:17:55.805Z,67
2023-01-03T10:18:59.494Z,66.8
2023-01-03T10:20:03.123Z,66.7
2023-01-03T10:21:05.582Z,66.5
2023-01-03T10:22:08.723Z,66.3
2023-01-03T10:23:12.138Z,65.3
2023-01-03T10:24:15.905Z,64.9
2023-01-03T10:25:19.309Z,65
2023-01-03T10:26:32.881Z,65.3
2023-01-03T10:27:36.511Z,65.7
2023-01-03T10:28:40.704Z,65.5
2023-01-03T10:29:44.391Z,65
2023-01-03T10:31:08.556Z,64.2
2023-01-03T10:32:12.806Z,63.9
2023-01-03T10:33:16.021Z,63.3
2023-01-03T10:34:18.930Z,63.7
2023-01-03T10:35:22.835Z,62.9
2023-01-03T10:36:26.004Z,63.3
2023-01-03T10:37:29.402Z,62.8
2023-01-03T10:38:53.761Z,62.9
2023-01-03T10:39:57.067Z,62.5
2023-01-03T10:41:00.365Z,61.9
2023-01-03T10:42:04.076Z,62.1
2023-01-03T10:43:07.326Z,61.7
2023-01-03T10:44:10.639Z,62.6
2023-01-03T10:45:14.081Z,62.5
2023-01-03T10:46:17.900Z,62
2023-01-03T10:47:21.183Z,60.7
2023-01-03T10:48:23.934Z,60.5
2023-01-03T10:49:31.992Z,59.9
2023-01-03T10:50:35.029Z,59.7
2023-01-03T10:51:44.500Z,59.9
2023-01-03T10:52:47.979Z,59.5
2023-01-03T10:53:51.347Z,59.4
2023-01-03T10:54:54.493Z,59
2023-01-03T10:55:58.721Z,59.2
2023-01-03T10:57:01.303Z,59.7
2023-01-03T10:58:05.053Z,60.1
2023-01-03T10:59:08.396Z,59.3
2023-01-03T11:00:11.480Z,58.9
2023-01-03T11:01:15.722Z,57.6
2023-01-03T11:02:20.551Z,58
2023-01-03T11:03:24.639Z,58.1
2023-01-03T11:04:27.950Z,58.8
2023-01-03T11:05:31.765Z,58.4
2023-01-03T11:06:34.789Z,58.5
2023-01-03T11:07:38.451Z,57.3
2023-01-03T11:08:41.814Z,58
2023-01-03T11:09:53.017Z,57.1
2023-01-03T11:10:56.467Z,57.3
2023-01-03T11:12:00.335Z,57.9
2023-01-03T11:13:03.381Z,58
2023-01-03T11:14:06.736Z,58.4
2023-01-03T11:15:10.379Z,58
2023-01-03T11:16:13.822Z,57.8
2023-01-03T11:17:17.813Z,57.9
2023-01-03T11:18:21.093Z,57.5
2023-01-03T11:19:23.948Z,56.7
2023-01-03T11:20:27.235Z,57.2
2023-01-03T11:21:30.665Z,57.2
2023-01-03T11:22:39.282Z,57.2
2023-01-03T11:23:42.260Z,56.6
2023-01-03T11:24:45.634Z,56.5
2023-01-03T11:25:48.912Z,56.2
2023-01-03T11:26:52.553Z,56.4
2023-01-03T11:27:56.484Z,55.9
2023-01-03T11:28:59.560Z,55.5
2023-01-03T11:30:02.072Z,55.4
2023-01-03T11:31:04.828Z,55.1
2023-01-03T11:32:09.119Z,54.5
2023-01-03T11:33:12.324Z,54
2023-01-03T11:34:15.422Z,54
2023-01-03T11:35:26.880Z,53.6
2023-01-03T11:36:30.741Z,52.8
2023-01-03T11:37:34.158Z,53.2
2023-01-03T11:38:37.815Z,52.9
2023-01-03T11:39:40.670Z,53.6
2023-01-03T11:40:44.476Z,53.5
2023-01-03T11:41:47.815Z,54.3
2023-01-03T11:42:51.586Z,53.5
2023-01-03T11:43:55.747Z,53.6
2023-01-03T11:44:59.436Z,53.4
2023-01-03T11:46:03.025Z,53.1
2023-01-03T11:47:05.920Z,53.9
2023-01-03T11:48:09.379Z,53.4
2023-01-03T11:49:13.415Z,53.2
2023-01-03T11:50:17.284Z,52.3
2023-01-03T11:51:20.067Z,52.6
2023-01-03T11:52:23.145Z,52.7
2023-01-03T11:53:26.434Z,52.8
2023-01-03T11:54:29.510Z,52.1
2023-01-03T11:55:32.912Z,52.8
2023-01-03T11:56:36.259Z,51.6
2023-01-03T11:57:39.350Z,56.3
2023-01-03T11:58:42.457Z,51.6
2023-01-03T11:59:46.499Z,51.7
2023-01-03T12:00:50.004Z,51.7
2023-01-03T12:01:53.727Z,51.3
2023-01-03T12:02:57.770Z,50.8
2023-01-03T12:04:02.429Z,50.6
2023-01-03T12:05:05.689Z,50.1
2023-01-03T12:06:08.261Z,50.3
2023-01-03T12:07:49.771Z,50.2
2023-01-03T12:08:53.800Z,50.6
2023-01-03T12:09:57.164Z,50.2
2023-01-03T12:11:00.973Z,49.7
2023-01-03T12:12:04.732Z,49.4
2023-01-03T12:13:08.512Z,49.9
2023-01-03T12:14:11.583Z,50.4
2023-01-03T12:15:15.876Z,50.6
2023-01-03T12:16:19.036Z,50.7
2023-01-03T12:17:22.279Z,49.5
2023-01-03T12:18:26.035Z,49.9
2023-01-03T12:19:29.201Z,50.2
2023-01-03T12:20:32.619Z,50.6
2023-01-03T12:21:35.705Z,50.7
2023-01-03T12:22:39.068Z,50.3
2023-01-03T12:23:41.588Z,50.4
2023-01-03T12:24:44.990Z,51.1
2023-01-03T12:25:48.643Z,50.7
2023-01-03T12:26:51.753Z,50.2
2023-01-03T12:27:54.518Z,49.6
2023-01-03T12:28:57.609Z,49.7
2023-01-03T12:30:00.769Z,49.4
2023-01-03T12:31:05.169Z,48.9
2023-01-03T12:32:08.730Z,49.4
2023-01-03T12:33:11.885Z,49.2
2023-01-03T12:34:14.718Z,50
2023-01-03T12:35:17.375Z,49.8
2023-01-03T12:36:21.204Z,49.5
2023-01-03T12:37:24.024Z,48.7
2023-01-03T12:38:27.497Z,48.4
2023-01-03T12:39:35.006Z,49.1
2023-01-03T12:40:37.942Z,49.7
2023-01-03T12:41:41.056Z,50.3
2023-01-03T12:42:44.618Z,50.1
2023-01-03T12:43:47.474Z,50.7
2023-01-03T12:44:51.206Z,52.1
2023-01-03T12:45:54.079Z,52.2
2023-01-03T12:46:58.649Z,52.1
2023-01-03T12:48:04.064Z,53.2
2023-01-03T12:49:06.905Z,53.7
2023-01-03T12:50:10.280Z,54.8
2023-01-03T12:51:13.528Z,54.7
2023-01-03T12:52:18.040Z,54.7
2023-01-03T12:53:21.477Z,55.2
2023-01-03T12:54:24.898Z,56.1
2023-01-03T12:55:28.018Z,54.5
2023-01-03T12:56:31.609Z,54.9
2023-01-03T12:57:35.388Z,54.6
2023-01-03T12:58:41.356Z,55.1
2023-01-03T12:59:43.849Z,54.7
2023-01-03T13:00:47.559Z,55.1
2023-01-03T13:01:51.618Z,55.4
2023-01-03T13:02:56.838Z,56.1
2023-01-03T13:04:02.104Z,56.1
2023-01-03T13:05:05.200Z,55.7
2023-01-03T13:06:07.650Z,55.6
2023-01-03T13:07:11.180Z,56.6
2023-01-03T13:08:14.376Z,55.7
2023-01-03T13:09:17.505Z,56.2
2023-01-03T13:10:21.137Z,56.7
2023-01-03T13:11:24.483Z,57.6
2023-01-03T13:12:27.859Z,57.7
2023-01-03T13:13:30.571Z,58.2
2023-01-03T13:14:33.067Z,58.2
2023-01-03T13:15:39.145Z,57.7
2023-01-03T13:16:42.805Z,57.7
2023-01-03T13:17:47.017Z,58
2023-01-03T13:18:50.871Z,57.8
2023-01-03T13:19:54.622Z,57.8
2023-01-03T13:20:57.403Z,57.5
2023-01-03T13:22:00.509Z,57.7
2023-01-03T13:23:03.882Z,57.7
2023-01-03T13:24:06.976Z,58
2023-01-03T13:25:10.002Z,58.6
2023-01-03T13:26:13.014Z,58.8
2023-01-03T13:27:16.782Z,57.8
2023-01-03T13:28:19.873Z,57.5
2023-01-03T13:29:22.909Z,58
2023-01-03T13:30:26.251Z,58.3
2023-01-03T13:31:29.221Z,58.3
2023-01-03T13:32:39.622Z,58.6
2023-01-03T13:33:42.879Z,59.6
2023-01-03T13:34:46.502Z,59.7
2023-01-03T13:35:49.409Z,60
2023-01-03T13:36:52.108Z,59.9
2023-01-03T13:37:55.305Z,60.5
2023-01-03T13:38:59.312Z,60.6
2023-01-03T13:40:02.739Z,60.5
2023-01-03T13:41:20.296Z,60.8
2023-01-03T13:42:23.593Z,60.2
2023-01-03T13:43:27.077Z,60.6
2023-01-03T13:44:30.478Z,60.1
2023-01-03T13:45:33.567Z,59.8
2023-01-03T13:46:36.984Z,59.4
2023-01-03T13:47:39.964Z,59.2
2023-01-03T13:48:43.063Z,59.5
2023-01-03T13:49:55.026Z,59.7
2023-01-03T13:50:58.809Z,59.1
2023-01-03T13:52:02.598Z,59
2023-01-03T13:53:05.688Z,59.6
2023-01-03T13:54:09.137Z,60
2023-01-03T13:55:12.163Z,60
2023-01-03T13:56:14.907Z,60.1
2023-01-03T13:57:17.978Z,59.5
2023-01-03T13:58:21.091Z,59.4
2023-01-03T13:59:24.504Z,58.8
2023-01-03T14:00:28.151Z,58.9
2023-01-03T14:01:31.505Z,59.1
2023-01-03T14:02:36.678Z,59.5
2023-01-03T14:03:40.371Z,59.8
2023-01-03T14:04:44.140Z,60.2
2023-01-03T14:05:47.900Z,60.1
2023-01-03T14:06:51.842Z,61.4
2023-01-03T14:07:54.643Z,62.2
2023-01-03T14:08:57.941Z,62.4
2023-01-03T14:10:01.132Z,61.5
2023-01-03T14:11:04.847Z,61.8
2023-01-03T14:12:08.007Z,62.6
2023-01-03T14:13:11.279Z,62.1
2023-01-03T14:14:14.908Z,61.5
2023-01-03T14:15:28.107Z,60.5
2023-01-03T14:16:32.043Z,59.9